createdAt,value
2023-06-30T00:01:12.185Z,9.13
2023-06-30T00:06:14.568Z,9.53
2023-06-30T00:11:18.482Z,10.50
2023-06-30T00:16:21.628Z,9.53
2023-06-30T00:21:23.990Z,9.53
2023-06-30T00:26:26.368Z,9.93
2023-06-30T00:31:29.827Z,10.33
2023-06-30T00:36:32.947Z,11.30
2023-06-30T00:41:36.144Z,10.30
2023-06-30T00:46:38.611Z,10.00
2023-06-30T00:51:41.654Z,10.50
2023-06-30T00:56:44.220Z,10.50
2023-06-30T01:02:01.378Z,10.17
2023-06-30T01:07:24.486Z,9.90
2023-06-30T01:12:27.180Z,9.63
2023-06-30T01:17:30.043Z,10.50
2023-06-30T01:22:53.209Z,9.80
2023-06-30T01:27:57.309Z,11.33
2023-06-30T01:33:00.427Z,11.00
2023-06-30T01:38:03.821Z,11.17
2023-06-30T01:43:06.709Z,10.97
2023-06-30T01:48:09.286Z,10.77
2023-06-30T01:53:11.755Z,11.37
2023-06-30T01:58:14.129Z,12.63
2023-06-30T02:03:16.604Z,11.97
2023-06-30T02:08:19.187Z,12.30
2023-06-30T02:13:21.532Z,14.43
2023-06-30T02:18:26.492Z,13.93
2023-06-30T02:23:31.549Z,14.60
2023-06-30T02:28:33.970Z,13.90
2023-06-30T02:33:36.774Z,13.93
2023-06-30T02:38:39.145Z,13.63
2023-06-30T02:43:41.568Z,15.17
2023-06-30T02:48:44.088Z,14.83
2023-06-30T02:53:46.839Z,15.77
2023-06-30T02:58:49.207Z,14.43
2023-06-30T03:03:51.832Z,15.13
2023-06-30T03:08:54.422Z,16.73
2023-06-30T03:14:00.252Z,16.73
2023-06-30T03:19:08.031Z,18.10
2023-06-30T03:24:11.112Z,17.23
2023-06-30T03:29:13.527Z,17.77
2023-06-30T03:34:16.135Z,19.87
2023-06-30T03:39:19.409Z,18.77
2023-06-30T03:44:22.854Z,18.70
2023-06-30T03:49:25.843Z,18.97
2023-06-30T03:54:28.335Z,19.00
2023-06-30T03:59:30.795Z,17.73
2023-06-30T04:04:33.671Z,17.33
2023-06-30T04:09:36.803Z,18.70
2023-06-30T04:14:39.259Z,17.50
2023-06-30T04:19:41.611Z,15.50
2023-06-30T04:24:44.001Z,15.50
2023-06-30T04:29:46.364Z,15.63
2023-06-30T04:34:48.761Z,14.57
2023-06-30T04:39:51.793Z,12.97
2023-06-30T04:44:54.478Z,14.23
2023-06-30T04:49:56.990Z,12.83
2023-06-30T04:54:59.403Z,13.87
2023-06-30T05:00:02.107Z,13.13
2023-06-30T05:05:08.264Z,11.70
2023-06-30T05:10:11.198Z,12.10
2023-06-30T05:15:13.629Z,12.67
2023-06-30T05:20:16.728Z,13.00
2023-06-30T05:25:19.195Z,11.47
2023-06-30T05:30:21.559Z,11.27
2023-06-30T05:35:23.954Z,11.83
2023-06-30T05:40:26.338Z,12.00
2023-06-30T05:45:28.727Z,11.73
2023-06-30T05:50:31.291Z,13.30
2023-06-30T05:55:33.664Z,12.90
2023-06-30T06:00:36.323Z,15.27
2023-06-30T06:05:38.986Z,13.57
2023-06-30T06:10:41.702Z,17.63
2023-06-30T06:15:44.457Z,15.17
2023-06-30T06:20:46.988Z,15.27
2023-06-30T06:25:50.588Z,16.37
2023-06-30T06:30:53.403Z,16.17
2023-06-30T06:35:55.842Z,15.63
2023-06-30T06:40:58.289Z,15.17
2023-06-30T06:46:00.734Z,15.37
2023-06-30T06:51:04.806Z,14.10
2023-06-30T06:56:07.178Z,13.93
2023-06-30T07:01:11.501Z,12.27
2023-06-30T07:06:13.868Z,12.80
2023-06-30T07:11:16.246Z,12.40
2023-06-30T07:16:23.107Z,15.10
2023-06-30T07:21:27.667Z,14.00
2023-06-30T07:26:32.886Z,14.90
2023-06-30T07:31:35.684Z,14.03
2023-06-30T07:36:38.600Z,13.77
2023-06-30T07:41:40.953Z,14.23
2023-06-30T07:46:43.477Z,15.57
2023-06-30T07:51:46.835Z,13.17
2023-06-30T07:56:49.366Z,13.33
2023-06-30T08:01:52.499Z,11.97
2023-06-30T08:06:56.027Z,12.83
2023-06-30T08:11:58.894Z,11.13
2023-06-30T08:17:01.662Z,11.60
2023-06-30T08:22:04.619Z,11.07
2023-06-30T08:27:07.293Z,10.47
2023-06-30T08:32:10.200Z,10.43
2023-06-30T08:37:12.678Z,10.37
2023-06-30T08:42:16.596Z,10.63
2023-06-30T08:47:19.323Z,10.53
2023-06-30T08:52:23.337Z,9.90
2023-06-30T08:57:26.563Z,9.80
2023-06-30T09:02:29.302Z,9.37
2023-06-30T09:07:37.576Z,8.10
2023-06-30T09:12:41.065Z,8.90
2023-06-30T09:17:44.386Z,8.33
2023-06-30T09:22:51.608Z,9.00
2023-06-30T09:27:58.194Z,8.20
2023-06-30T09:33:01.081Z,6.23
2023-06-30T09:38:17.640Z,7.23
2023-06-30T09:43:22.048Z,7.43
2023-06-30T09:48:32.587Z,6.47
2023-06-30T09:53:42.303Z,6.40
2023-06-30T09:58:46.319Z,6.57
2023-06-30T10:03:50.374Z,8.13
2023-06-30T10:08:53.288Z,8.80
2023-06-30T10:13:59.357Z,14.03
2023-06-30T10:19:04.134Z,15.60
2023-06-30T10:24:07.122Z,12.10
2023-06-30T10:29:09.682Z,9.73
2023-06-30T10:34:12.518Z,9.10
2023-06-30T10:39:15.497Z,8.93
2023-06-30T10:44:22.215Z,7.47
2023-06-30T10:49:29.211Z,8.00
2023-06-30T10:54:48.935Z,7.47
2023-06-30T11:00:08.407Z,7.10
2023-06-30T11:05:30.587Z,8.53
2023-06-30T11:10:46.288Z,9.50
2023-06-30T11:15:53.455Z,8.57
2023-06-30T11:21:01.461Z,8.53
2023-06-30T11:26:30.118Z,7.50
2023-06-30T11:31:37.938Z,8.57
2023-06-30T11:36:40.447Z,8.90
2023-06-30T11:41:44.961Z,8.37
2023-06-30T11:46:47.501Z,8.60
2023-06-30T11:51:50.079Z,7.00
2023-06-30T11:56:52.497Z,7.37
2023-06-30T12:01:55.520Z,7.73
2023-06-30T12:06:58.040Z,6.60
2023-06-30T12:12:02.035Z,7.63
2023-06-30T12:17:05.715Z,7.37
2023-06-30T12:22:13.422Z,6.57
2023-06-30T12:27:16.331Z,5.93
2023-06-30T12:32:18.868Z,6.23
2023-06-30T12:37:26.728Z,5.80
2023-06-30T12:42:30.013Z,7.13
2023-06-30T12:47:34.219Z,7.20
2023-06-30T12:52:36.872Z,7.80
2023-06-30T12:57:40.141Z,7.37
2023-06-30T13:02:42.917Z,8.57
2023-06-30T13:07:46.093Z,8.27
2023-06-30T13:12:48.643Z,8.30
2023-06-30T13:17:51.840Z,7.60
2023-06-30T13:23:10.044Z,8.13
2023-06-30T13:28:16.753Z,8.53
2023-06-30T13:33:20.715Z,8.03
2023-06-30T13:38:24.551Z,7.83
2023-06-30T13:43:27.021Z,7.93
2023-06-30T13:48:33.310Z,7.47
2023-06-30T13:53:40.506Z,7.53
2023-06-30T13:58:43.177Z,6.97
2023-06-30T14:03:49.901Z,6.77
2023-06-30T14:08:52.452Z,6.90
2023-06-30T14:13:55.148Z,5.77
2023-06-30T14:18:57.652Z,5.07
2023-06-30T14:24:00.111Z,4.20
2023-06-30T14:29:02.682Z,4.60
2023-06-30T14:34:05.121Z,4.43
2023-06-30T14:39:07.763Z,4.63
2023-06-30T14:44:10.194Z,5.30
2023-06-30T14:49:12.704Z,5.27
2023-06-30T14:54:15.096Z,5.50
2023-06-30T14:59:17.569Z,6.03
2023-06-30T15:04:20.109Z,5.87
2023-06-30T15:09:22.735Z,6.03
2023-06-30T15:14:27.665Z,5.57
2023-06-30T15:19:30.163Z,5.57
2023-06-30T15:24:33.381Z,5.63
2023-06-30T15:29:35.850Z,5.60
2023-06-30T15:34:38.418Z,5.63
2023-06-30T15:39:40.934Z,5.00
2023-06-30T15:44:43.424Z,4.93
2023-06-30T15:49:46.653Z,4.90
2023-06-30T15:55:10.071Z,5.03
2023-06-30T16:00:13.458Z,6.27
2023-06-30T16:05:18.022Z,5.07
2023-06-30T16:10:20.529Z,5.27
2023-06-30T16:15:23.643Z,4.13
2023-06-30T16:20:26.722Z,4.57
2023-06-30T16:25:29.101Z,4.13
2023-06-30T16:30:34.418Z,4.50
2023-06-30T16:35:36.901Z,4.83
2023-06-30T16:40:39.573Z,4.70
2023-06-30T16:45:42.041Z,5.63
2023-06-30T16:50:44.592Z,5.07
2023-06-30T16:55:47.440Z,5.53
2023-06-30T17:00:50.878Z,4.90
2023-06-30T17:05:53.561Z,5.50
2023-06-30T17:10:56.397Z,4.33
2023-06-30T17:15:58.952Z,4.70
2023-06-30T17:21:01.620Z,4.07
2023-06-30T17:26:04.172Z,4.17
2023-06-30T17:31:06.939Z,4.83
2023-06-30T17:36:11.513Z,4.73
2023-06-30T17:41:14.334Z,4.43
2023-06-30T17:46:17.866Z,4.13
2023-06-30T17:51:20.367Z,5.03
2023-06-30T17:56:23.903Z,4.57
2023-06-30T18:01:26.421Z,4.30
2023-06-30T18:06:29.049Z,5.23
2023-06-30T18:11:31.535Z,4.10
2023-06-30T18:16:34.052Z,3.97
2023-06-30T18:21:36.494Z,4.37
2023-06-30T18:26:42.094Z,4.70
2023-06-30T18:31:44.901Z,4.07
2023-06-30T18:36:47.746Z,4.33
2023-06-30T18:41:50.578Z,7.40
2023-06-30T18:46:53.300Z,6.03
2023-06-30T18:51:55.751Z,4.60
2023-06-30T18:56:58.651Z,4.60
2023-06-30T19:02:01.302Z,4.47
2023-06-30T19:07:04.153Z,4.33
2023-06-30T19:12:07.202Z,5.13
2023-06-30T19:17:10.906Z,7.20
2023-06-30T19:22:16.062Z,5.27
2023-06-30T19:27:18.916Z,4.83
2023-06-30T19:32:21.499Z,5.23
2023-06-30T19:37:23.995Z,4.97
2023-06-30T19:42:28.829Z,4.13
2023-06-30T19:47:33.577Z,5.53
2023-06-30T19:52:38.213Z,4.90
2023-06-30T19:57:41.130Z,4.30
2023-06-30T20:02:44.546Z,4.83
2023-06-30T20:07:47.625Z,5.07
2023-06-30T20:12:51.112Z,4.77
2023-06-30T20:17:53.614Z,5.40
2023-06-30T20:22:57.187Z,5.67
2023-06-30T20:27:59.660Z,5.10
2023-06-30T20:33:02.191Z,7.00
2023-06-30T20:38:04.765Z,5.67
2023-06-30T20:43:07.208Z,5.50
2023-06-30T20:48:10.332Z,5.50
2023-06-30T20:53:12.743Z,6.53
2023-06-30T20:58:15.194Z,6.70
2023-06-30T21:03:17.839Z,6.77
2023-06-30T21:08:20.400Z,6.53
2023-06-30T21:13:22.784Z,6.13
2023-06-30T21:18:25.200Z,6.97
2023-06-30T21:23:27.598Z,6.10
2023-06-30T21:28:30.862Z,6.90
2023-06-30T21:33:33.343Z,6.53
2023-06-30T21:38:36.179Z,6.63
2023-06-30T21:43:38.552Z,6.60
2023-06-30T21:48:41.208Z,7.53
2023-06-30T21:53:43.677Z,7.57
2023-06-30T21:58:46.166Z,6.97
2023-06-30T22:03:48.682Z,7.00
2023-06-30T22:08:53.394Z,7.23
2023-06-30T22:13:57.965Z,7.50
2023-06-30T22:19:00.325Z,9.53
2023-06-30T22:24:02.738Z,7.33
2023-06-30T22:29:05.174Z,7.90
2023-06-30T22:34:07.768Z,8.90
2023-06-30T22:39:11.276Z,7.33
2023-06-30T22:44:13.684Z,7.60
2023-06-30T22:49:19.261Z,7.63
2023-06-30T22:54:21.652Z,7.17
2023-06-30T22:59:24.057Z,6.57
2023-06-30T23:04:26.469Z,7.50
2023-06-30T23:09:28.914Z,6.70
2023-06-30T23:14:31.382Z,7.53
2023-06-30T23:19:33.877Z,6.77
2023-06-30T23:24:37.043Z,6.70
2023-06-30T23:29:39.595Z,6.43
2023-06-30T23:34:42.019Z,6.47
2023-06-30T23:39:44.830Z,7.37
2023-06-30T23:44:47.229Z,6.47
2023-06-30T23:49:49.606Z,5.13
2023-06-30T23:54:52.346Z,6.23
2023-06-30T23:59:54.695Z,5.90
